createdAt,value
2018-07-23T00:00:40.686Z,92.70
2018-07-23T00:02:45.716Z,93.00
2018-07-23T00:04:49.703Z,92.80
2018-07-23T00:06:55.530Z,92.80
2018-07-23T00:09:00.444Z,92.60
2018-07-23T00:11:04.377Z,92.20
2018-07-23T00:13:08.281Z,92.00
2018-07-23T00:15:16.139Z,91.90
2018-07-23T00:17:20.187Z,91.50
2018-07-23T00:19:24.765Z,91.20
2018-07-23T00:21:30.663Z,90.80
2018-07-23T00:23:34.602Z,90.50
2018-07-23T00:25:41.571Z,90.60
2018-07-23T00:29:49.601Z,90.40
2018-07-23T00:31:53.562Z,90.70
2018-07-23T00:33:57.983Z,90.70
2018-07-23T00:36:01.856Z,90.70
2018-07-23T00:38:06.901Z,91.10
2018-07-23T00:40:12.793Z,91.00
2018-07-23T00:44:21.395Z,91.20
2018-07-23T00:46:25.673Z,91.40
2018-07-23T00:48:33.403Z,91.30
2018-07-23T00:50:37.312Z,91.20
2018-07-23T00:52:42.681Z,91.00
2018-07-23T00:54:46.636Z,91.20
2018-07-23T00:56:50.515Z,91.30
2018-07-23T00:58:57.562Z,91.20
2018-07-23T01:01:01.524Z,90.80
2018-07-23T01:03:07.010Z,90.60
2018-07-23T01:05:10.930Z,90.80
2018-07-23T01:07:14.773Z,90.90
2018-07-23T01:09:18.661Z,91.10
2018-07-23T01:11:23.163Z,91.20
2018-07-23T01:13:29.730Z,91.60
2018-07-23T01:17:42.422Z,91.90
2018-07-23T01:19:48.262Z,91.50
2018-07-23T01:21:52.207Z,91.30
2018-07-23T01:23:56.731Z,91.20
2018-07-23T01:26:00.860Z,91.10
2018-07-23T01:28:04.906Z,91.30
2018-07-23T01:30:08.910Z,91.60
2018-07-23T01:32:12.848Z,91.70
2018-07-23T01:34:16.758Z,91.50
2018-07-23T01:36:21.204Z,91.50
2018-07-23T01:38:25.106Z,91.90
2018-07-23T01:40:28.953Z,91.80
2018-07-23T01:42:34.694Z,91.40
2018-07-23T01:44:38.526Z,91.10
2018-07-23T01:46:42.577Z,90.70
2018-07-23T01:48:47.037Z,90.50
2018-07-23T01:50:50.955Z,90.30
2018-07-23T01:52:55.499Z,90.10
2018-07-23T01:54:59.443Z,90.00
2018-07-23T01:57:04.279Z,90.10
2018-07-23T01:59:08.510Z,90.50
2018-07-23T02:01:14.599Z,90.70
2018-07-23T02:03:18.562Z,90.80
2018-07-23T02:05:22.597Z,90.40
2018-07-23T02:07:26.755Z,90.00
2018-07-23T02:09:30.706Z,89.60
2018-07-23T02:11:34.653Z,89.10
2018-07-23T02:13:51.879Z,90.00
2018-07-23T02:15:55.902Z,90.00
2018-07-23T02:17:59.786Z,90.00
2018-07-23T02:20:03.763Z,90.70
2018-07-23T02:22:07.557Z,91.10
2018-07-23T02:24:11.558Z,91.50
2018-07-23T02:26:17.797Z,91.60
2018-07-23T02:28:21.706Z,91.70
2018-07-23T02:30:25.661Z,91.70
2018-07-23T02:32:29.879Z,91.90
2018-07-23T02:34:33.776Z,91.90
2018-07-23T02:36:37.848Z,92.10
2018-07-23T02:38:42.310Z,92.20
2018-07-23T02:40:46.289Z,91.90
2018-07-23T02:42:50.125Z,91.80
2018-07-23T02:44:54.032Z,91.50
2018-07-23T02:46:58.089Z,91.00
2018-07-23T02:49:02.130Z,90.70
2018-07-23T02:51:06.374Z,90.80
2018-07-23T02:53:10.304Z,91.10
2018-07-23T02:55:14.251Z,90.90
2018-07-23T02:57:18.438Z,90.60
2018-07-23T02:59:22.393Z,90.10
2018-07-23T03:01:26.343Z,89.80
2018-07-23T03:03:30.613Z,89.70
2018-07-23T03:05:34.502Z,90.10
2018-07-23T03:07:39.130Z,90.40
2018-07-23T03:09:44.338Z,90.20
2018-07-23T03:11:50.539Z,90.10
2018-07-23T03:13:54.444Z,90.30
2018-07-23T03:15:59.549Z,91.10
2018-07-23T03:18:04.312Z,91.70
2018-07-23T03:20:08.206Z,91.70
2018-07-23T03:22:13.348Z,91.60
2018-07-23T03:24:17.104Z,91.40
2018-07-23T03:26:21.478Z,91.70
2018-07-23T03:28:27.624Z,91.70
2018-07-23T03:30:32.460Z,91.70
2018-07-23T03:32:37.245Z,91.70
2018-07-23T03:34:46.160Z,91.60
2018-07-23T03:36:50.108Z,91.10
2018-07-23T03:38:54.043Z,90.60
2018-07-23T03:40:57.970Z,90.60
2018-07-23T03:43:01.783Z,90.50
2018-07-23T03:45:07.283Z,90.40
2018-07-23T03:47:12.803Z,90.20
2018-07-23T03:49:16.769Z,89.90
2018-07-23T03:51:20.624Z,90.00
2018-07-23T03:53:24.902Z,89.40
2018-07-23T03:55:29.720Z,89.10
2018-07-23T03:57:35.353Z,88.40
2018-07-23T03:59:39.614Z,88.40
2018-07-23T04:01:43.644Z,88.40
2018-07-23T04:03:47.508Z,88.30
2018-07-23T04:05:51.802Z,88.40
2018-07-23T04:07:55.748Z,88.50
2018-07-23T04:09:59.982Z,89.10
2018-07-23T04:12:05.388Z,89.20
2018-07-23T04:14:09.554Z,90.00
2018-07-23T04:16:16.357Z,88.70
2018-07-23T04:18:21.827Z,89.00
2018-07-23T04:20:25.799Z,88.70
2018-07-23T04:22:30.687Z,89.40
2018-07-23T04:24:34.865Z,88.60
2018-07-23T04:26:38.762Z,88.70
2018-07-23T04:28:42.684Z,88.70
2018-07-23T04:30:47.709Z,88.40
2018-07-23T04:37:51.889Z,89.10
2018-07-23T04:40:25.394Z,89.80
2018-07-23T04:42:59.176Z,89.90
2018-07-23T04:45:32.857Z,88.70
2018-07-23T04:48:07.468Z,87.80
2018-07-23T04:50:41.082Z,86.30
2018-07-23T04:53:14.613Z,85.90
2018-07-23T04:55:48.483Z,85.80
2018-07-23T04:58:22.131Z,85.40
2018-07-23T05:00:55.879Z,84.60
2018-07-23T05:03:29.689Z,84.00
2018-07-23T05:06:16.820Z,83.50
2018-07-23T05:11:21.740Z,82.90
2018-07-23T05:13:55.191Z,82.60
2018-07-23T05:16:27.973Z,81.90
2018-07-23T05:19:09.805Z,82.20
2018-07-23T05:21:43.468Z,82.20
2018-07-23T05:24:16.183Z,83.00
2018-07-23T05:26:51.137Z,84.70
2018-07-23T05:29:23.880Z,86.10
2018-07-23T05:31:56.744Z,85.90
2018-07-23T05:34:31.540Z,86.20
2018-07-23T05:37:05.018Z,87.20
2018-07-23T05:39:37.874Z,88.80
2018-07-23T05:42:24.599Z,87.30
2018-07-23T05:44:58.348Z,87.90
2018-07-23T05:47:34.952Z,87.20
2018-07-23T05:50:12.597Z,87.60
2018-07-23T05:52:53.240Z,86.00
2018-07-23T05:55:29.943Z,86.20
2018-07-23T05:58:06.539Z,86.70
2018-07-23T06:00:49.217Z,85.80
2018-07-23T06:03:21.996Z,84.90
2018-07-23T06:05:57.732Z,84.10
2018-07-23T06:08:32.985Z,83.50
2018-07-23T06:11:23.539Z,82.80
2018-07-23T06:13:56.660Z,82.80
2018-07-23T06:16:31.262Z,81.40
2018-07-23T06:19:05.385Z,80.80
2018-07-23T06:21:39.413Z,80.10
2018-07-23T06:24:12.923Z,79.60
2018-07-23T06:26:46.628Z,79.60
2018-07-23T06:29:21.251Z,79.30
2018-07-23T06:31:55.038Z,78.80
2018-07-23T06:34:31.218Z,77.70
2018-07-23T06:37:05.185Z,76.80
2018-07-23T06:39:37.939Z,75.60
2018-07-23T06:42:13.634Z,75.30
2018-07-23T06:44:46.417Z,75.50
2018-07-23T06:47:21.171Z,75.40
2018-07-23T06:49:53.936Z,74.90
2018-07-23T06:52:32.637Z,73.80
2018-07-23T06:55:11.198Z,73.50
2018-07-23T06:57:46.015Z,71.40
2018-07-23T07:00:23.285Z,69.80
2018-07-23T07:02:59.636Z,68.50
2018-07-23T07:05:36.547Z,67.10
2018-07-23T07:08:10.788Z,67.20
2018-07-23T07:10:43.753Z,66.20
2018-07-23T07:13:18.367Z,65.40
2018-07-23T07:15:55.672Z,63.90
2018-07-23T07:18:29.621Z,62.10
2018-07-23T07:21:03.390Z,62.40
2018-07-23T07:23:38.189Z,60.80
2018-07-23T07:26:12.672Z,59.70
2018-07-23T07:28:53.308Z,58.40
2018-07-23T07:31:29.995Z,58.30
2018-07-23T07:34:03.594Z,58.20
2018-07-23T07:36:39.360Z,58.60
2018-07-23T07:39:17.045Z,57.70
2018-07-23T07:41:52.582Z,57.40
2018-07-23T07:44:26.420Z,57.00
2018-07-23T07:47:07.065Z,56.50
2018-07-23T07:49:42.701Z,56.10
2018-07-23T07:52:18.580Z,55.90
2018-07-23T07:54:53.097Z,54.20
2018-07-23T07:57:28.020Z,53.50
2018-07-23T08:00:04.473Z,53.40
2018-07-23T08:02:38.234Z,53.90
2018-07-23T08:05:13.821Z,53.30
2018-07-23T08:07:52.735Z,53.20
2018-07-23T08:10:28.828Z,53.10
2018-07-23T08:15:30.126Z,51.30
2018-07-23T08:18:06.627Z,51.30
2018-07-23T08:20:18.153Z,51.10
2018-07-23T08:22:24.542Z,50.60
2018-07-23T08:24:29.773Z,50.40
2018-07-23T08:26:39.325Z,49.80
2018-07-23T08:28:43.139Z,49.80
2018-07-23T08:30:49.335Z,49.30
2018-07-23T08:33:18.782Z,49.10
2018-07-23T08:35:27.296Z,49.00
2018-07-23T08:37:36.751Z,48.40
2018-07-23T08:39:43.569Z,48.50
2018-07-23T08:41:48.432Z,48.60
2018-07-23T08:43:59.352Z,49.00
2018-07-23T08:46:05.579Z,48.60
2018-07-23T08:48:14.324Z,48.80
2018-07-23T08:50:25.170Z,48.80
2018-07-23T08:52:30.464Z,47.60
2018-07-23T08:54:41.447Z,45.90
2018-07-23T08:56:48.176Z,46.00
2018-07-23T08:58:56.181Z,46.00
2018-07-23T09:01:05.489Z,45.20
2018-07-23T09:05:24.400Z,46.80
2018-07-23T09:07:28.231Z,46.50
2018-07-23T09:09:35.292Z,46.40
2018-07-23T09:11:39.227Z,46.10
2018-07-23T09:15:52.961Z,45.80
2018-07-23T09:17:57.726Z,44.30
2018-07-23T09:20:02.825Z,43.60
2018-07-23T09:22:06.988Z,44.20
2018-07-23T09:24:11.006Z,43.30
2018-07-23T09:26:15.624Z,44.20
2018-07-23T09:28:20.443Z,43.90
2018-07-23T09:30:56.880Z,44.00
2018-07-23T09:33:01.491Z,43.50
2018-07-23T09:35:10.308Z,43.60
2018-07-23T09:37:16.404Z,43.50
2018-07-23T09:39:24.294Z,42.20
2018-07-23T09:41:28.998Z,41.80
2018-07-23T09:43:35.021Z,41.30
2018-07-23T09:45:53.765Z,41.70
2018-07-23T09:47:57.926Z,41.50
2018-07-23T09:50:03.970Z,41.50
2018-07-23T09:52:09.442Z,41.40
2018-07-23T09:54:13.436Z,39.80
2018-07-23T09:56:19.343Z,39.80
2018-07-23T09:58:23.671Z,39.30
2018-07-23T10:00:32.784Z,39.50
2018-07-23T10:02:40.625Z,39.30
2018-07-23T10:04:47.705Z,39.60
2018-07-23T10:06:52.854Z,39.50
2018-07-23T10:08:58.323Z,39.00
2018-07-23T10:11:06.020Z,39.00
2018-07-23T10:13:10.256Z,40.00
2018-07-23T10:15:16.633Z,39.90
2018-07-23T10:17:21.197Z,40.00
2018-07-23T10:19:25.492Z,39.40
2018-07-23T10:21:30.034Z,38.90
2018-07-23T10:23:34.713Z,38.10
2018-07-23T10:25:38.548Z,37.50
2018-07-23T10:29:48.771Z,36.70
2018-07-23T10:31:53.216Z,36.80
2018-07-23T10:33:57.268Z,37.60
2018-07-23T10:36:05.838Z,37.00
2018-07-23T10:38:10.463Z,36.50
2018-07-23T10:40:17.538Z,36.00
2018-07-23T10:42:22.530Z,36.00
2018-07-23T10:44:27.262Z,35.80
2018-07-23T10:46:33.048Z,34.70
2018-07-23T10:50:44.371Z,33.40
2018-07-23T10:52:52.781Z,34.00
2018-07-23T10:54:58.044Z,35.30
2018-07-23T10:57:03.647Z,35.30
2018-07-23T10:59:12.316Z,35.40
2018-07-23T11:01:24.290Z,34.90
2018-07-23T11:03:28.212Z,34.30
2018-07-23T11:05:33.162Z,35.30
2018-07-23T11:07:37.108Z,35.70
2018-07-23T11:09:43.161Z,36.50
2018-07-23T11:11:48.400Z,37.10
2018-07-23T11:13:55.438Z,38.60
2018-07-23T11:15:59.285Z,38.30
2018-07-23T11:18:07.382Z,37.60
2018-07-23T11:20:17.181Z,37.10
2018-07-23T11:22:23.504Z,36.80
2018-07-23T11:24:29.298Z,36.10
2018-07-23T11:26:34.999Z,36.20
2018-07-23T11:28:39.585Z,36.60
2018-07-23T11:30:51.933Z,37.10
2018-07-23T11:33:06.265Z,36.00
2018-07-23T11:35:19.158Z,36.30
2018-07-23T11:37:24.372Z,36.40
2018-07-23T11:39:41.399Z,36.70
2018-07-23T11:41:49.158Z,35.50
2018-07-23T11:45:03.459Z,35.60
2018-07-23T11:47:17.533Z,35.50
2018-07-23T11:49:23.776Z,35.20
2018-07-23T11:51:30.848Z,34.70
2018-07-23T11:57:47.756Z,34.40
2018-07-23T11:59:52.458Z,34.80
2018-07-23T12:01:57.205Z,34.30
2018-07-23T12:04:03.734Z,34.20
2018-07-23T12:06:08.484Z,34.70
2018-07-23T12:08:13.915Z,35.10
2018-07-23T12:10:18.681Z,34.80
2018-07-23T12:12:23.563Z,34.40
2018-07-23T12:14:27.566Z,34.20
2018-07-23T12:16:32.475Z,34.40
2018-07-23T12:18:37.957Z,34.50
2018-07-23T12:20:43.833Z,34.00
2018-07-23T12:22:51.294Z,33.90
2018-07-23T12:24:59.674Z,34.40
2018-07-23T12:27:04.608Z,34.60
2018-07-23T12:29:08.414Z,35.00
2018-07-23T12:33:18.016Z,35.20
2018-07-23T12:35:25.768Z,35.40
2018-07-23T12:37:34.474Z,36.00
2018-07-23T12:39:39.137Z,36.40
2018-07-23T12:41:54.988Z,34.80
2018-07-23T12:43:59.789Z,34.80
2018-07-23T12:46:03.741Z,33.80
2018-07-23T12:48:07.732Z,33.00
2018-07-23T12:53:01.932Z,33.10
2018-07-23T12:55:06.128Z,32.70
2018-07-23T12:57:12.369Z,31.90
2018-07-23T12:59:17.787Z,31.90
2018-07-23T13:01:22.206Z,31.70
2018-07-23T13:03:28.763Z,31.50
2018-07-23T13:05:33.850Z,31.00
2018-07-23T13:09:41.390Z,31.80
2018-07-23T13:11:45.571Z,31.10
2018-07-23T13:13:49.596Z,31.00
2018-07-23T13:15:59.388Z,31.40
2018-07-23T13:18:04.155Z,31.20
2018-07-23T13:20:08.130Z,31.10
2018-07-23T13:22:13.822Z,31.40
2018-07-23T13:24:19.492Z,32.30
2018-07-23T13:26:24.734Z,32.10
2018-07-23T13:28:28.660Z,31.90
2018-07-23T13:30:32.621Z,30.70
2018-07-23T13:32:38.726Z,30.80
2018-07-23T13:34:51.398Z,30.90
2018-07-23T13:36:55.941Z,30.70
2018-07-23T13:38:59.917Z,30.00
2018-07-23T13:41:04.525Z,29.60
2018-07-23T13:43:10.997Z,29.60
2018-07-23T13:45:17.869Z,28.90
2018-07-23T13:47:21.760Z,28.50
2018-07-23T13:49:26.127Z,28.50
2018-07-23T13:51:32.978Z,28.90
2018-07-23T13:53:37.378Z,28.90
2018-07-23T13:55:52.034Z,29.50
2018-07-23T14:00:08.499Z,30.00
2018-07-23T14:02:15.435Z,30.50
2018-07-23T14:04:20.301Z,30.50
2018-07-23T14:06:24.228Z,30.30
2018-07-23T14:08:29.391Z,29.90
2018-07-23T14:12:36.931Z,29.10
2018-07-23T14:14:41.431Z,28.90
2018-07-23T14:17:02.673Z,28.40
2018-07-23T14:19:06.654Z,28.80
2018-07-23T14:21:11.125Z,28.50
2018-07-23T14:23:15.985Z,27.70
2018-07-23T14:25:20.050Z,27.90
2018-07-23T14:27:25.540Z,28.20
2018-07-23T14:29:30.299Z,27.80
2018-07-23T14:31:36.107Z,27.80
2018-07-23T14:33:41.446Z,26.70
2018-07-23T14:35:48.584Z,26.60
2018-07-23T14:37:53.429Z,26.50
2018-07-23T14:39:57.761Z,26.70
2018-07-23T14:42:02.175Z,27.40
2018-07-23T14:44:10.370Z,27.20
2018-07-23T14:46:16.479Z,27.20
2018-07-23T14:48:20.469Z,27.70
2018-07-23T14:50:24.591Z,27.00
2018-07-23T14:52:29.188Z,27.50
2018-07-23T14:54:36.211Z,27.30
2018-07-23T14:56:41.719Z,27.50
2018-07-23T14:58:46.313Z,26.90
2018-07-23T15:00:50.500Z,26.20
2018-07-23T15:02:54.871Z,26.80
2018-07-23T15:05:00.231Z,27.90
2018-07-23T15:07:11.440Z,28.00
2018-07-23T15:09:33.645Z,28.00
2018-07-23T15:11:37.910Z,28.00
2018-07-23T15:13:44.428Z,27.80
2018-07-23T15:15:52.147Z,27.80
2018-07-23T15:17:59.384Z,27.90
2018-07-23T15:20:05.349Z,27.50
2018-07-23T15:22:10.883Z,27.40
2018-07-23T15:24:22.428Z,27.70
2018-07-23T15:26:29.267Z,27.50
2018-07-23T15:28:34.928Z,27.30
2018-07-23T15:30:42.206Z,27.20
2018-07-23T15:32:46.360Z,27.00
2018-07-23T15:34:51.030Z,26.80
2018-07-23T15:36:56.663Z,26.70
2018-07-23T15:39:03.582Z,27.00
2018-07-23T15:41:09.624Z,27.00
2018-07-23T15:43:17.132Z,26.40
2018-07-23T15:45:23.187Z,26.60
2018-07-23T15:47:29.067Z,26.80
2018-07-23T15:51:39.304Z,26.60
2018-07-23T15:53:49.419Z,26.50
2018-07-23T15:56:00.740Z,27.50
2018-07-23T15:58:05.312Z,27.80
2018-07-23T16:00:19.078Z,27.40
2018-07-23T16:02:24.224Z,27.00
2018-07-23T16:04:39.241Z,27.20
2018-07-23T16:06:44.014Z,27.90
2018-07-23T16:08:49.359Z,28.00
2018-07-23T16:10:54.238Z,28.00
2018-07-23T16:13:00.627Z,28.10
2018-07-23T16:15:07.446Z,28.00
2018-07-23T16:17:13.116Z,27.70
2018-07-23T16:19:20.303Z,27.60
2018-07-23T16:21:27.926Z,27.50
2018-07-23T16:23:32.419Z,27.70
2018-07-23T16:25:39.647Z,28.20
2018-07-23T16:27:55.511Z,28.10
2018-07-23T16:32:13.137Z,28.30
2018-07-23T16:34:17.536Z,28.20
2018-07-23T16:36:22.657Z,28.30
2018-07-23T16:38:28.145Z,28.40
2018-07-23T16:40:33.796Z,28.90
2018-07-23T16:42:38.594Z,29.00
2018-07-23T16:44:44.217Z,28.60
2018-07-23T16:46:52.301Z,28.40
2018-07-23T16:49:08.264Z,27.90
2018-07-23T16:51:22.037Z,28.00
2018-07-23T16:53:29.415Z,28.50
2018-07-23T16:55:37.416Z,27.80
2018-07-23T16:57:54.659Z,27.70
2018-07-23T17:01:05.540Z,27.80
2018-07-23T17:03:13.624Z,28.00
2018-07-23T17:05:19.023Z,28.00
2018-07-23T17:07:34.491Z,28.20
2018-07-23T17:09:43.784Z,27.60
2018-07-23T17:14:04.034Z,27.40
2018-07-23T17:16:13.254Z,27.50
2018-07-23T17:18:35.215Z,27.60
2018-07-23T17:20:40.571Z,27.80
2018-07-23T17:22:44.591Z,27.40
2018-07-23T17:24:48.883Z,27.50
2018-07-23T17:26:54.604Z,27.50
2018-07-23T17:29:03.088Z,27.90
2018-07-23T17:31:07.492Z,27.70
2018-07-23T17:35:15.765Z,27.20
2018-07-23T17:37:21.756Z,27.10
2018-07-23T17:39:28.349Z,27.20
2018-07-23T17:41:34.120Z,27.30
2018-07-23T17:43:40.436Z,27.80
2018-07-23T17:45:45.661Z,28.00
2018-07-23T17:47:50.648Z,27.90
2018-07-23T17:49:58.727Z,28.00
2018-07-23T17:52:05.782Z,28.40
2018-07-23T17:54:11.106Z,28.50
2018-07-23T17:56:15.205Z,28.30
2018-07-23T17:58:23.146Z,28.50
2018-07-23T18:01:06.086Z,28.70
2018-07-23T18:03:10.816Z,29.30
2018-07-23T18:05:19.713Z,30.60
2018-07-23T18:07:23.759Z,31.90
2018-07-23T18:09:27.960Z,33.10
2018-07-23T18:11:33.377Z,34.30
2018-07-23T18:13:38.259Z,34.70
2018-07-23T18:15:43.330Z,36.50
2018-07-23T18:17:48.318Z,38.10
2018-07-23T18:19:53.167Z,39.20
2018-07-23T18:22:00.224Z,39.60
2018-07-23T18:24:05.572Z,40.20
2018-07-23T18:26:11.119Z,40.90
2018-07-23T18:28:17.455Z,41.30
2018-07-23T18:30:22.340Z,41.70
2018-07-23T18:32:26.390Z,41.70
2018-07-23T18:34:30.765Z,42.10
2018-07-23T18:36:35.019Z,42.10
2018-07-23T18:38:40.844Z,42.60
2018-07-23T18:40:46.335Z,42.80
2018-07-23T18:42:52.084Z,43.20
2018-07-23T18:44:56.787Z,43.40
2018-07-23T18:47:00.889Z,43.50
2018-07-23T18:49:28.506Z,43.60
2018-07-23T18:51:52.343Z,43.90
2018-07-23T18:54:01.429Z,44.20
2018-07-23T18:56:06.716Z,44.70
2018-07-23T18:58:11.958Z,44.90
2018-07-23T19:00:23.988Z,45.00
2018-07-23T19:02:34.143Z,44.90
2018-07-23T19:04:39.519Z,45.20
2018-07-23T19:06:44.195Z,45.30
2018-07-23T19:08:49.485Z,45.50
2018-07-23T19:10:57.136Z,45.60
2018-07-23T19:13:01.444Z,45.60
2018-07-23T19:15:10.309Z,45.90
2018-07-23T19:17:24.656Z,45.80
2018-07-23T19:19:29.703Z,45.90
2018-07-23T19:21:38.781Z,46.00
2018-07-23T19:26:01.874Z,46.30
2018-07-23T19:28:24.456Z,46.50
2018-07-23T19:30:32.804Z,46.60
2018-07-23T19:32:40.460Z,47.10
2018-07-23T19:34:47.463Z,47.60
2018-07-23T19:37:02.699Z,48.20
2018-07-23T19:39:17.179Z,48.40
2018-07-23T19:43:29.345Z,49.30
2018-07-23T19:45:36.141Z,49.50
2018-07-23T19:47:42.267Z,49.50
2018-07-23T19:52:00.704Z,50.20
2018-07-23T19:54:05.463Z,50.70
2018-07-23T19:56:11.782Z,50.80
2018-07-23T19:58:20.533Z,51.00
2018-07-23T20:00:25.712Z,51.00
2018-07-23T20:02:35.064Z,51.00
2018-07-23T20:04:42.449Z,51.60
2018-07-23T20:07:03.242Z,51.70
2018-07-23T20:11:27.425Z,53.30
2018-07-23T20:13:32.639Z,53.60
2018-07-23T20:15:37.878Z,54.10
2018-07-23T20:17:50.390Z,54.70
2018-07-23T20:20:00.451Z,55.20
2018-07-23T20:22:06.356Z,55.50
2018-07-23T20:24:11.824Z,55.20
2018-07-23T20:26:18.956Z,55.10
2018-07-23T20:30:30.568Z,56.10
2018-07-23T20:32:35.670Z,56.70
2018-07-23T20:34:42.604Z,57.60
2018-07-23T20:36:47.036Z,57.90
2018-07-23T20:38:51.801Z,58.00
2018-07-23T20:43:04.898Z,58.10
2018-07-23T20:47:20.264Z,57.80
2018-07-23T20:49:26.651Z,57.70
2018-07-23T20:51:30.814Z,57.70
2018-07-23T20:53:35.300Z,57.90
2018-07-23T20:55:39.810Z,58.10
2018-07-23T20:57:44.799Z,58.60
2018-07-23T20:59:49.044Z,58.40
2018-07-23T21:01:53.997Z,58.20
2018-07-23T21:03:59.865Z,58.10
2018-07-23T21:06:04.520Z,57.90
2018-07-23T21:08:13.669Z,58.10
2018-07-23T21:10:26.422Z,57.80
2018-07-23T21:12:56.271Z,57.70
2018-07-23T21:15:07.599Z,57.60
2018-07-23T21:17:15.981Z,57.80
2018-07-23T21:19:25.488Z,57.90
2018-07-23T21:23:41.456Z,58.00
2018-07-23T21:25:47.289Z,57.90
2018-07-23T21:27:53.382Z,58.10
2018-07-23T21:29:57.989Z,58.20
2018-07-23T21:32:04.983Z,58.70
2018-07-23T21:34:20.010Z,58.90
2018-07-23T21:36:29.148Z,59.00
2018-07-23T21:38:38.022Z,59.00
2018-07-23T21:42:50.241Z,59.20
2018-07-23T21:44:54.453Z,59.40
2018-07-23T21:47:00.993Z,59.90
2018-07-23T21:49:07.990Z,60.00
2018-07-23T21:51:12.001Z,60.30
2018-07-23T21:53:17.408Z,60.10
2018-07-23T21:55:21.604Z,60.20
2018-07-23T21:57:27.444Z,60.30
2018-07-23T21:59:34.111Z,60.40
2018-07-23T22:01:40.685Z,60.20
2018-07-23T22:03:45.432Z,60.10
2018-07-23T22:05:50.644Z,59.80
2018-07-23T22:07:56.081Z,59.70
2018-07-23T22:10:02.306Z,59.20
2018-07-23T22:12:07.523Z,59.20
2018-07-23T22:14:12.816Z,59.40
2018-07-23T22:16:22.785Z,59.80
2018-07-23T22:18:32.696Z,60.60
2018-07-23T22:20:37.602Z,61.20
2018-07-23T22:22:42.348Z,61.20
2018-07-23T22:24:47.609Z,61.10
2018-07-23T22:26:55.385Z,61.20
2018-07-23T22:29:00.282Z,61.20
2018-07-23T22:31:10.243Z,61.50
2018-07-23T22:33:14.849Z,61.60
2018-07-23T22:37:22.856Z,61.60
2018-07-23T22:41:32.736Z,61.40
2018-07-23T22:43:38.267Z,61.60
2018-07-23T22:45:43.545Z,62.30
2018-07-23T22:50:06.513Z,61.60
2018-07-23T22:52:11.192Z,61.60
2018-07-23T22:54:15.361Z,62.10
2018-07-23T22:56:21.777Z,62.50
2018-07-23T22:58:26.808Z,62.60
2018-07-23T23:00:32.526Z,62.90
2018-07-23T23:02:38.346Z,62.60
2018-07-23T23:04:43.809Z,63.10
2018-07-23T23:06:49.343Z,63.70
2018-07-23T23:09:02.133Z,63.80
2018-07-23T23:11:08.755Z,63.60
2018-07-23T23:13:12.947Z,63.40
2018-07-23T23:15:19.384Z,63.80
2018-07-23T23:17:23.777Z,64.30
2018-07-23T23:19:29.312Z,64.10
2018-07-23T23:21:35.215Z,64.50
2018-07-23T23:23:40.400Z,65.00
2018-07-23T23:25:44.451Z,65.60
2018-07-23T23:27:48.810Z,65.70
2018-07-23T23:29:52.873Z,64.80
2018-07-23T23:31:56.893Z,64.20
2018-07-23T23:34:00.952Z,64.20
2018-07-23T23:36:05.824Z,64.40
2018-07-23T23:38:09.943Z,65.00
2018-07-23T23:40:14.412Z,65.50
2018-07-23T23:42:18.500Z,65.30
2018-07-23T23:44:22.690Z,65.20
2018-07-23T23:46:26.930Z,65.20
2018-07-23T23:48:31.447Z,65.70
2018-07-23T23:50:35.551Z,66.20
2018-07-23T23:52:40.834Z,65.70
2018-07-23T23:54:44.894Z,65.80
2018-07-23T23:56:49.118Z,65.70
2018-07-23T23:58:53.529Z,65.60
